Time;durP1;ratioP1;P1;durP2;ratioP2;P2;SDS_P1;SDS_P2;PMS_P1;PMS_P2;Temp;Humidity;BMP_temperature;BMP_pressure;BME280_temperature;BME280_humidity;BME280_pressure;Samples;Min_cycle;Max_cycle;Signal;HPM_P1;HPM_P2
2023/07/10 00:00:00;;;;;;;0.10;0.10;;;13.90;63.90;;;;;;5050906;28;20199;-59
2023/07/10 00:02:31;;;;;;;0.10;0.10;;;13.90;64.00;;;;;;5051479;28;20191;-58
2023/07/10 00:05:04;;;;;;;0.10;0.10;;;13.90;64.00;;;;;;5054405;28;20215;-56
2023/07/10 00:07:34;;;;;;;0.15;0.15;;;14.00;64.10;;;;;;5069451;28;20205;-55
2023/07/10 00:10:05;;;;;;;0.10;0.10;;;14.00;64.00;;;;;;5050805;28;20569;-58
2023/07/10 00:12:35;;;;;;;0.10;0.10;;;14.00;64.00;;;;;;5052451;28;20198;-58
2023/07/10 00:15:18;;;;;;;0.10;0.10;;;14.00;64.00;;;;;;5051321;28;20238;-57
2023/07/10 00:17:50;;;;;;;0.10;0.10;;;14.00;64.00;;;;;;5050124;28;20195;-58
2023/07/10 00:20:24;;;;;;;0.10;0.10;;;14.00;64.00;;;;;;5051589;28;20191;-58
2023/07/10 00:22:54;;;;;;;0.10;0.10;;;14.00;64.10;;;;;;5046346;28;20187;-58
2023/07/10 00:25:26;;;;;;;0.10;0.10;;;14.10;64.40;;;;;;5031583;28;20195;-59
2023/07/10 00:27:56;;;;;;;0.10;0.10;;;14.10;64.50;;;;;;5034360;28;20191;-58
2023/07/10 00:30:28;;;;;;;0.10;0.10;;;14.10;64.60;;;;;;5051089;28;20199;-59
2023/07/10 00:32:58;;;;;;;0.10;0.10;;;14.10;64.70;;;;;;5050855;28;20212;-55
2023/07/10 00:35:31;;;;;;;0.10;0.10;;;14.10;64.80;;;;;;5050834;28;20682;-57
2023/07/10 00:38:04;;;;;;;0.10;0.10;;;14.10;64.70;;;;;;5051532;28;20552;-56
2023/07/10 00:40:36;;;;;;;0.10;0.10;;;14.20;64.70;;;;;;5050516;28;20202;-58
2023/07/10 00:43:13;;;;;;;0.10;0.10;;;14.20;64.70;;;;;;5052002;28;20207;-58
2023/07/10 00:45:43;;;;;;;0.10;0.10;;;14.20;64.70;;;;;;5050531;28;20679;-56
2023/07/10 00:48:24;;;;;;;0.10;0.10;;;14.20;64.60;;;;;;5050578;28;20183;-57
2023/07/10 00:50:59;;;;;;;0.20;0.20;;;14.30;64.70;;;;;;5049860;28;20551;-58
2023/07/10 00:53:32;;;;;;;0.10;0.10;;;14.20;64.80;;;;;;5043795;28;20226;-56
2023/07/10 00:56:04;;;;;;;0.10;0.10;;;14.30;64.80;;;;;;5051266;28;20271;-55
2023/07/10 00:58:39;;;;;;;0.10;0.10;;;14.30;64.80;;;;;;5050145;28;20197;-57
2023/07/10 01:01:13;;;;;;;0.10;0.10;;;14.30;64.90;;;;;;5050863;28;20259;-58
2023/07/10 01:03:45;;;;;;;0.10;0.10;;;14.40;65.00;;;;;;5049578;28;20211;-58
2023/07/10 01:06:20;;;;;;;0.10;0.10;;;14.40;65.00;;;;;;5050446;28;20198;-55
2023/07/10 01:08:54;;;;;;;0.10;0.10;;;14.40;65.20;;;;;;5049536;28;20195;-57
2023/07/10 01:11:25;;;;;;;0.13;0.13;;;14.40;65.10;;;;;;5051326;28;20204;-58
2023/07/10 01:13:57;;;;;;;0.10;0.10;;;14.50;65.10;;;;;;5058834;28;20249;-58
2023/07/10 01:16:30;;;;;;;0.10;0.10;;;14.50;65.00;;;;;;5061505;28;20287;-59
2023/07/10 01:19:01;;;;;;;0.10;0.10;;;14.50;65.10;;;;;;5064490;28;20188;-59
2023/07/10 01:21:35;;;;;;;0.10;0.10;;;14.50;65.00;;;;;;5053769;28;20199;-59
2023/07/10 01:24:07;;;;;;;0.10;0.10;;;14.50;65.00;;;;;;5053570;28;20249;-59
2023/07/10 01:26:40;;;;;;;0.10;0.10;;;14.50;64.90;;;;;;5055038;28;20196;-59
2023/07/10 01:29:22;;;;;;;0.10;0.10;;;14.60;64.90;;;;;;5053410;28;20621;-59
2023/07/10 01:31:54;;;;;;;0.10;0.10;;;14.60;64.90;;;;;;5054231;28;20195;-58
2023/07/10 01:34:28;;;;;;;0.10;0.10;;;14.60;65.00;;;;;;5053912;28;20242;-57
2023/07/10 01:37:01;;;;;;;0.10;0.10;;;14.70;65.10;;;;;;5053275;28;20195;-58
2023/07/10 01:39:38;;;;;;;0.10;0.10;;;14.70;65.10;;;;;;5053651;28;20196;-58
2023/07/10 01:42:09;;;;;;;0.10;0.10;;;14.70;65.10;;;;;;5053823;28;20682;-58
2023/07/10 01:44:41;;;;;;;0.10;0.10;;;14.70;65.00;;;;;;5047441;28;20238;-58
2023/07/10 01:47:14;;;;;;;0.20;0.20;;;14.70;65.00;;;;;;5053581;28;20652;-58
2023/07/10 01:49:48;;;;;;;0.10;0.10;;;14.80;65.00;;;;;;5054093;28;20199;-59
2023/07/10 01:52:24;;;;;;;0.10;0.10;;;14.80;65.00;;;;;;5053936;28;20196;-58
2023/07/10 01:54:55;;;;;;;0.10;0.10;;;14.80;65.00;;;;;;5053267;28;20227;-58
2023/07/10 01:57:26;;;;;;;0.10;0.10;;;14.80;65.00;;;;;;5053878;28;20200;-58
2023/07/10 01:59:57;;;;;;;0.10;0.10;;;14.90;65.00;;;;;;5053247;28;20192;-58
2023/07/10 02:02:28;;;;;;;0.10;0.10;;;14.90;65.00;;;;;;5053222;28;20192;-58
2023/07/10 02:04:58;;;;;;;0.10;0.10;;;14.90;65.00;;;;;;5052777;28;20219;-58
2023/07/10 02:07:31;;;;;;;0.10;0.10;;;14.90;65.00;;;;;;5053952;28;20198;-58
2023/07/10 02:10:02;;;;;;;0.10;0.10;;;14.90;65.00;;;;;;5053137;28;20286;-58
2023/07/10 02:12:32;;;;;;;0.10;0.10;;;15.00;65.10;;;;;;5055867;28;20383;-59
2023/07/10 02:15:03;;;;;;;0.10;0.10;;;15.00;65.00;;;;;;5057732;28;20212;-59
2023/07/10 02:17:34;;;;;;;0.10;0.10;;;15.00;64.90;;;;;;5052812;28;20290;-59
2023/07/10 02:20:05;;;;;;;0.10;0.10;;;15.00;64.90;;;;;;5052520;28;20191;-58
2023/07/10 02:22:38;;;;;;;0.10;0.10;;;15.10;65.20;;;;;;5052069;28;20561;-59
2023/07/10 02:25:09;;;;;;;0.08;0.08;;;15.10;66.00;;;;;;5053789;28;20515;-59
2023/07/10 02:27:39;;;;;;;0.10;0.10;;;15.10;66.30;;;;;;5050688;28;20203;-58
2023/07/10 02:30:11;;;;;;;0.10;0.10;;;15.20;66.10;;;;;;5049279;28;20219;-58
2023/07/10 02:32:41;;;;;;;0.10;0.10;;;15.20;65.90;;;;;;5052367;28;20204;-59
2023/07/10 02:35:12;;;;;;;0.10;0.10;;;15.30;65.90;;;;;;5053613;28;20219;-59
2023/07/10 02:37:45;;;;;;;0.10;0.10;;;15.30;65.80;;;;;;5052701;28;20203;-58
2023/07/10 02:40:16;;;;;;;0.10;0.10;;;15.30;65.70;;;;;;5052101;28;20231;-58
2023/07/10 02:42:46;;;;;;;0.10;0.10;;;15.40;65.70;;;;;;5057571;28;20199;-58
2023/07/10 02:45:18;;;;;;;0.10;0.10;;;15.40;65.60;;;;;;5057687;28;20200;-58
2023/07/10 02:47:49;;;;;;;0.10;0.10;;;15.40;65.50;;;;;;5052605;28;20225;-58
2023/07/10 02:50:20;;;;;;;0.10;0.10;;;15.40;65.40;;;;;;5052044;28;20191;-58
2023/07/10 02:52:52;;;;;;;0.10;0.10;;;15.40;65.40;;;;;;5053105;28;20697;-58
2023/07/10 02:55:23;;;;;;;0.10;0.10;;;15.40;65.30;;;;;;5052514;28;20215;-59
2023/07/10 02:57:54;;;;;;;0.10;0.10;;;15.50;65.30;;;;;;5034031;28;20265;-58
2023/07/10 03:00:24;;;;;;;0.10;0.10;;;15.50;65.20;;;;;;5047293;28;20196;-59
2023/07/10 03:02:57;;;;;;;0.10;0.10;;;15.50;65.20;;;;;;5051997;28;20192;-58
2023/07/10 03:05:28;;;;;;;0.10;0.10;;;15.60;65.10;;;;;;5052444;28;20198;-59
2023/07/10 03:08:01;;;;;;;0.15;0.15;;;15.60;65.10;;;;;;5052366;28;20195;-59
2023/07/10 03:10:31;;;;;;;0.10;0.10;;;15.60;65.10;;;;;;5052093;28;20207;-58
2023/07/10 03:13:02;;;;;;;0.10;0.10;;;15.60;65.00;;;;;;5058218;28;20219;-59
2023/07/10 03:15:33;;;;;;;0.10;0.10;;;15.70;65.10;;;;;;5056237;28;20717;-59
2023/07/10 03:18:03;;;;;;;0.10;0.10;;;15.60;65.00;;;;;;5051891;28;20200;-59
2023/07/10 03:20:34;;;;;;;0.10;0.10;;;15.70;65.00;;;;;;5052454;28;20196;-59
2023/07/10 03:23:06;;;;;;;0.10;0.10;;;15.70;65.00;;;;;;5052236;28;20215;-58
2023/07/10 03:25:38;;;;;;;0.10;0.10;;;15.70;64.90;;;;;;5052563;28;20188;-59
2023/07/10 03:28:08;;;;;;;0.10;0.10;;;15.70;64.90;;;;;;5052937;28;20206;-59
2023/07/10 03:30:40;;;;;;;0.10;0.10;;;15.70;64.80;;;;;;5052778;28;20215;-59
2023/07/10 03:33:16;;;;;;;0.10;0.10;;;15.80;64.80;;;;;;5052103;28;20222;-59
2023/07/10 03:35:48;;;;;;;0.10;0.10;;;15.80;64.70;;;;;;5041870;28;20230;-59
2023/07/10 03:38:21;;;;;;;0.00;0.00;;;15.80;64.70;;;;;;5051963;28;20286;-59
2023/07/10 03:40:55;;;;;;;0.10;0.10;;;15.80;64.70;;;;;;5039895;28;20203;-58
2023/07/10 03:43:27;;;;;;;0.10;0.10;;;15.80;64.70;;;;;;5050018;28;20218;-59
2023/07/10 03:45:58;;;;;;;0.13;0.13;;;15.80;64.60;;;;;;5050957;28;20199;-59
2023/07/10 03:48:29;;;;;;;0.10;0.10;;;15.80;64.60;;;;;;5051727;28;20235;-59
2023/07/10 03:51:00;;;;;;;0.10;0.10;;;15.80;64.50;;;;;;5051060;28;20435;-59
2023/07/10 03:53:32;;;;;;;0.10;0.10;;;15.90;64.60;;;;;;5037313;28;20632;-58
2023/07/10 03:56:03;;;;;;;0.10;0.10;;;15.90;64.50;;;;;;5050978;28;20230;-59
2023/07/10 03:58:36;;;;;;;0.10;0.10;;;15.90;64.50;;;;;;5051248;28;20615;-59
2023/07/10 04:01:06;;;;;;;0.10;0.10;;;15.90;64.40;;;;;;5050921;28;20670;-58
2023/07/10 04:03:38;;;;;;;0.10;0.10;;;15.90;64.40;;;;;;5050657;28;20211;-58
2023/07/10 04:06:10;;;;;;;0.10;0.10;;;15.90;64.30;;;;;;5051479;28;20510;-59
2023/07/10 04:08:45;;;;;;;0.10;0.10;;;15.90;64.30;;;;;;5050936;28;20200;-59
2023/07/10 04:11:16;;;;;;;0.10;0.10;;;15.90;64.30;;;;;;5050447;28;20210;-59
2023/07/10 04:13:47;;;;;;;0.10;0.10;;;15.90;64.20;;;;;;5061058;28;20222;-59
2023/07/10 04:16:20;;;;;;;0.00;0.00;;;16.00;64.20;;;;;;5050786;28;20260;-59
2023/07/10 04:18:51;;;;;;;0.10;0.10;;;16.00;64.20;;;;;;5050559;28;20207;-59
2023/07/10 04:21:24;;;;;;;0.10;0.10;;;15.90;64.10;;;;;;5050896;28;20195;-59
2023/07/10 04:23:57;;;;;;;0.10;0.10;;;15.90;64.10;;;;;;5050108;28;20211;-59
2023/07/10 04:26:29;;;;;;;0.10;0.10;;;16.00;64.10;;;;;;5050668;28;20215;-59
2023/07/10 04:29:01;;;;;;;0.10;0.10;;;16.00;64.10;;;;;;5047084;28;20183;-59
2023/07/10 04:31:32;;;;;;;0.13;0.13;;;16.00;64.10;;;;;;5050616;28;20206;-58
2023/07/10 04:34:02;;;;;;;0.10;0.10;;;16.00;64.10;;;;;;5049898;28;20212;-59
2023/07/10 04:36:35;;;;;;;0.10;0.10;;;16.00;64.10;;;;;;5051210;28;20227;-59
2023/07/10 04:39:07;;;;;;;0.10;0.10;;;16.00;64.10;;;;;;5050511;28;20225;-59
2023/07/10 04:41:40;;;;;;;0.10;0.10;;;16.00;64.10;;;;;;5051041;28;20287;-59
2023/07/10 04:44:11;;;;;;;0.10;0.10;;;16.10;64.00;;;;;;5062807;28;20215;-59
2023/07/10 04:46:43;;;;;;;0.10;0.10;;;16.00;64.00;;;;;;5053217;28;20195;-59
2023/07/10 04:49:13;;;;;;;0.10;0.10;;;16.10;63.90;;;;;;5054667;28;20278;-59
2023/07/10 04:51:44;;;;;;;0.03;0.03;;;16.00;63.80;;;;;;5055283;28;20202;-59
2023/07/10 04:54:16;;;;;;;0.10;0.10;;;16.00;64.60;;;;;;5054461;28;20208;-58
2023/07/10 04:56:47;;;;;;;0.10;0.10;;;16.10;64.60;;;;;;5055495;28;20203;-59
2023/07/10 04:59:17;;;;;;;0.10;0.10;;;16.00;63.70;;;;;;5054958;28;20188;-58
2023/07/10 05:01:48;;;;;;;0.10;0.10;;;16.00;63.70;;;;;;5067128;28;20190;-59
2023/07/10 05:04:19;;;;;;;0.10;0.10;;;16.00;63.70;;;;;;5044271;28;20607;-58
2023/07/10 05:06:51;;;;;;;0.10;0.10;;;16.10;63.80;;;;;;5054075;28;20197;-59
2023/07/10 05:09:24;;;;;;;0.00;0.00;;;16.10;63.80;;;;;;5054954;28;20192;-59
2023/07/10 05:11:54;;;;;;;0.10;0.10;;;16.10;63.80;;;;;;5053978;28;20206;-58
2023/07/10 05:14:25;;;;;;;0.10;0.10;;;16.10;63.80;;;;;;5068044;28;20215;-59
2023/07/10 05:16:56;;;;;;;0.20;0.20;;;16.00;63.70;;;;;;5054268;28;20195;-58
2023/07/10 05:19:26;;;;;;;0.10;0.10;;;16.10;63.70;;;;;;5062579;28;20203;-56
2023/07/10 05:21:57;;;;;;;0.08;0.08;;;16.10;63.70;;;;;;5053771;28;20195;-57
2023/07/10 05:24:29;;;;;;;0.10;0.10;;;16.00;63.70;;;;;;5053340;28;20215;-58
2023/07/10 05:27:00;;;;;;;0.10;0.10;;;16.10;63.80;;;;;;5054550;28;20403;-58
2023/07/10 05:29:31;;;;;;;0.00;0.00;;;16.10;63.80;;;;;;5046862;28;20201;-58
2023/07/10 05:32:01;;;;;;;0.00;0.00;;;16.10;63.80;;;;;;5054422;28;20598;-58
2023/07/10 05:34:32;;;;;;;0.10;0.10;;;16.00;63.70;;;;;;5053449;28;20246;-58
2023/07/10 05:37:03;;;;;;;0.10;0.10;;;16.10;63.70;;;;;;5054291;28;20206;-59
2023/07/10 05:39:35;;;;;;;0.10;0.10;;;16.00;63.60;;;;;;5053300;28;20198;-57
2023/07/10 05:42:06;;;;;;;0.10;0.10;;;16.10;63.70;;;;;;5054245;28;20196;-58
2023/07/10 05:44:37;;;;;;;0.10;0.10;;;16.10;63.70;;;;;;5059449;28;20207;-58
2023/07/10 05:47:09;;;;;;;0.10;0.10;;;16.10;63.70;;;;;;5054676;28;20203;-58
2023/07/10 05:49:40;;;;;;;0.00;0.00;;;16.10;63.70;;;;;;5053440;28;20275;-58
2023/07/10 05:52:11;;;;;;;0.00;0.00;;;16.10;63.80;;;;;;5053433;28;20199;-59
2023/07/10 05:54:44;;;;;;;0.10;0.10;;;16.10;63.80;;;;;;5053570;28;20216;-58
2023/07/10 05:57:14;;;;;;;0.10;0.10;;;16.10;63.80;;;;;;5052237;28;20195;-58
2023/07/10 05:59:45;;;;;;;0.10;0.10;;;16.10;63.70;;;;;;5053494;28;20188;-58
2023/07/10 06:02:15;;;;;;;0.10;0.10;;;16.00;63.70;;;;;;5053458;28;20195;-58
2023/07/10 06:04:46;;;;;;;0.10;0.10;;;16.10;63.70;;;;;;5053281;28;20203;-58
2023/07/10 06:07:17;;;;;;;0.10;0.10;;;16.10;63.70;;;;;;5053479;28;20225;-58
2023/07/10 06:09:49;;;;;;;0.10;0.10;;;16.10;63.70;;;;;;5053245;28;20640;-58
2023/07/10 06:12:20;;;;;;;0.10;0.10;;;16.10;63.70;;;;;;5054898;28;20663;-58
2023/07/10 06:14:51;;;;;;;0.00;0.00;;;16.10;63.60;;;;;;5068327;28;20683;-58
2023/07/10 06:17:21;;;;;;;0.10;0.10;;;16.10;63.60;;;;;;5064121;28;20203;-58
2023/07/10 06:19:53;;;;;;;0.10;0.10;;;16.10;63.60;;;;;;5068073;28;20187;-59
2023/07/10 06:22:24;;;;;;;0.10;0.10;;;16.10;63.50;;;;;;5042769;28;20600;-58
2023/07/10 06:24:56;;;;;;;0.00;0.00;;;16.10;63.50;;;;;;5037689;28;20207;-59
2023/07/10 06:27:27;;;;;;;0.10;0.10;;;16.10;63.50;;;;;;5054247;28;20199;-59
2023/07/10 06:29:58;;;;;;;0.10;0.10;;;16.10;63.50;;;;;;5042666;28;20188;-58
2023/07/10 06:32:30;;;;;;;0.00;0.00;;;16.10;63.50;;;;;;5053619;28;20286;-58
2023/07/10 06:35:01;;;;;;;0.10;0.10;;;16.10;63.60;;;;;;5052352;28;20723;-59
2023/07/10 06:37:32;;;;;;;0.10;0.10;;;16.10;63.60;;;;;;5052614;28;20195;-59
2023/07/10 06:40:13;;;;;;;0.10;0.10;;;16.10;63.60;;;;;;5053266;28;20184;-58
2023/07/10 06:42:44;;;;;;;0.10;0.10;;;16.10;63.70;;;;;;5057092;28;20210;-59
2023/07/10 06:45:15;;;;;;;0.10;0.10;;;16.10;63.60;;;;;;5065828;28;20655;-59
2023/07/10 06:47:47;;;;;;;0.10;0.10;;;16.00;63.60;;;;;;5043869;28;20192;-59
2023/07/10 06:50:18;;;;;;;0.03;0.03;;;16.10;63.70;;;;;;5040726;28;20185;-59
2023/07/10 06:52:49;;;;;;;0.10;0.10;;;16.10;63.70;;;;;;5031323;28;20652;-58
2023/07/10 06:55:22;;;;;;;0.10;0.10;;;16.10;63.70;;;;;;5038745;28;20215;-58
2023/07/10 06:57:52;;;;;;;0.10;0.10;;;16.10;63.70;;;;;;5052297;28;20249;-58
2023/07/10 07:00:24;;;;;;;0.03;0.03;;;16.10;63.60;;;;;;5052441;28;20194;-58
2023/07/10 07:02:54;;;;;;;0.10;0.10;;;16.10;63.50;;;;;;5035346;28;20531;-58
2023/07/10 07:05:25;;;;;;;0.10;0.10;;;16.00;63.50;;;;;;5038809;28;20196;-58
2023/07/10 07:07:55;;;;;;;0.10;0.10;;;16.10;63.40;;;;;;5053065;28;20566;-58
2023/07/10 07:10:29;;;;;;;0.10;0.10;;;16.00;63.40;;;;;;5052004;28;20699;-57
2023/07/10 07:13:00;;;;;;;0.00;0.00;;;16.10;63.40;;;;;;5059309;28;20490;-59
2023/07/10 07:15:30;;;;;;;0.20;0.20;;;16.10;63.40;;;;;;5054692;28;20595;-59
2023/07/10 07:18:01;;;;;;;0.10;0.10;;;16.00;63.30;;;;;;5052168;28;20206;-59
2023/07/10 07:20:32;;;;;;;0.10;0.10;;;16.10;63.30;;;;;;5051962;28;20207;-58
2023/07/10 07:23:03;;;;;;;0.10;0.10;;;16.10;63.30;;;;;;5052234;28;20215;-58
2023/07/10 07:25:35;;;;;;;0.00;0.00;;;16.10;63.30;;;;;;5052875;28;20253;-57
2023/07/10 07:28:06;;;;;;;0.15;0.15;;;16.10;63.30;;;;;;5052097;28;20646;-58
2023/07/10 07:30:37;;;;;;;0.10;0.10;;;16.00;63.30;;;;;;5039002;28;20200;-58
2023/07/10 07:33:07;;;;;;;0.10;0.10;;;16.00;63.20;;;;;;5051941;28;20717;-58
2023/07/10 07:35:40;;;;;;;0.10;0.10;;;16.00;63.30;;;;;;5051535;28;20590;-58
2023/07/10 07:38:11;;;;;;;0.10;0.10;;;16.00;63.30;;;;;;5051121;28;20202;-58
2023/07/10 07:40:43;;;;;;;0.10;0.10;;;16.00;63.30;;;;;;5051973;28;20200;-56
2023/07/10 07:43:14;;;;;;;0.10;0.10;;;16.00;63.20;;;;;;5059760;28;20746;-59
2023/07/10 07:45:53;;;;;;;0.10;0.10;;;16.00;63.10;;;;;;5056038;28;20219;-58
2023/07/10 07:48:24;;;;;;;0.00;0.00;;;16.00;63.10;;;;;;5051970;28;20225;-58
2023/07/10 07:51:00;;;;;;;0.10;0.10;;;16.00;63.00;;;;;;5052255;28;20207;-58
2023/07/10 07:53:31;;;;;;;0.10;0.10;;;16.00;63.00;;;;;;5050846;28;20219;-59
2023/07/10 07:56:03;;;;;;;0.10;0.10;;;16.00;63.00;;;;;;5051947;28;20568;-58
2023/07/10 07:58:34;;;;;;;0.05;0.05;;;16.00;63.00;;;;;;5051935;28;20191;-58
2023/07/10 08:01:05;;;;;;;0.10;0.10;;;16.00;63.00;;;;;;5052045;28;20195;-58
2023/07/10 08:03:36;;;;;;;0.10;0.10;;;16.00;63.00;;;;;;5051383;28;20223;-58
2023/07/10 08:06:08;;;;;;;0.10;0.10;;;16.00;63.00;;;;;;5051834;28;20253;-58
2023/07/10 08:08:39;;;;;;;0.10;0.10;;;16.00;63.10;;;;;;5051283;28;20206;-58
2023/07/10 08:11:11;;;;;;;0.00;0.00;;;16.00;63.00;;;;;;5051690;28;20203;-58
2023/07/10 08:13:43;;;;;;;0.10;0.10;;;16.00;63.00;;;;;;5064053;28;20706;-58
2023/07/10 08:16:13;;;;;;;0.10;0.10;;;16.00;63.00;;;;;;5071513;28;20218;-58
2023/07/10 08:18:44;;;;;;;0.05;0.05;;;16.00;63.00;;;;;;5071831;28;20194;-58
2023/07/10 08:21:16;;;;;;;0.10;0.10;;;15.90;63.00;;;;;;5071427;28;20213;-58
2023/07/10 08:23:46;;;;;;;0.10;0.10;;;15.90;62.90;;;;;;5070957;28;20627;-58
2023/07/10 08:26:19;;;;;;;0.03;0.03;;;15.90;62.80;;;;;;5056370;28;20210;-58
2023/07/10 08:28:49;;;;;;;0.10;0.10;;;15.90;62.80;;;;;;5031004;28;20594;-56
2023/07/10 08:31:21;;;;;;;0.10;0.10;;;15.90;62.70;;;;;;5031217;28;20192;-54
2023/07/10 08:33:52;;;;;;;0.10;0.10;;;15.90;62.70;;;;;;5031112;28;20220;-58
2023/07/10 08:36:22;;;;;;;0.10;0.10;;;15.90;62.70;;;;;;5031429;28;20224;-58
2023/07/10 08:38:53;;;;;;;0.10;0.10;;;15.90;62.70;;;;;;5031133;28;20211;-58
2023/07/10 08:41:25;;;;;;;0.03;0.03;;;15.90;62.70;;;;;;5031567;28;20207;-58
2023/07/10 08:43:56;;;;;;;0.10;0.10;;;15.90;62.70;;;;;;5060797;28;20223;-56
2023/07/10 08:46:28;;;;;;;0.10;0.10;;;15.90;62.70;;;;;;5071201;28;20203;-55
2023/07/10 08:49:06;;;;;;;0.10;0.10;;;15.90;62.70;;;;;;5070863;28;20202;-58
2023/07/10 08:51:49;;;;;;;0.10;0.10;;;15.90;62.70;;;;;;5071041;28;20216;-58
2023/07/10 08:54:20;;;;;;;0.08;0.08;;;15.90;62.70;;;;;;5070638;28;20257;-58
2023/07/10 08:56:59;;;;;;;0.08;0.08;;;15.90;62.70;;;;;;5070987;28;20322;-55
2023/07/10 08:59:46;;;;;;;0.10;0.10;;;15.90;62.70;;;;;;5052204;28;20651;-58
2023/07/10 09:02:26;;;;;;;0.10;0.10;;;15.90;62.70;;;;;;5051125;28;20191;-57
2023/07/10 09:04:58;;;;;;;0.10;0.10;;;15.80;62.60;;;;;;5047234;28;20215;-55
2023/07/10 09:07:31;;;;;;;0.05;0.05;;;15.80;62.60;;;;;;5031436;28;20211;-56
2023/07/10 09:10:05;;;;;;;0.00;0.00;;;15.80;62.50;;;;;;5031393;28;20227;-58
2023/07/10 09:12:42;;;;;;;0.10;0.10;;;15.80;62.60;;;;;;5038176;28;20202;-59
2023/07/10 09:15:19;;;;;;;0.10;0.10;;;15.80;62.60;;;;;;5071063;28;20225;-56
2023/07/10 09:18:01;;;;;;;0.10;0.10;;;15.80;62.60;;;;;;5070966;28;20313;-57
2023/07/10 09:20:32;;;;;;;0.10;0.10;;;15.80;62.50;;;;;;5057350;28;20199;-59
2023/07/10 09:23:05;;;;;;;0.10;0.10;;;15.80;62.50;;;;;;5049820;28;20215;-49
2023/07/10 09:25:39;;;;;;;0.10;0.10;;;15.80;61.80;;;;;;5051580;28;20192;-50
2023/07/10 09:28:12;;;;;;;0.10;0.10;;;15.70;60.20;;;;;;5050814;28;20681;-58
2023/07/10 09:30:53;;;;;;;0.10;0.10;;;15.60;59.70;;;;;;5050843;28;20203;-57
2023/07/10 09:33:24;;;;;;;0.13;0.13;;;15.50;59.90;;;;;;5039816;28;20248;-56
2023/07/10 09:35:57;;;;;;;0.10;0.10;;;15.50;60.00;;;;;;5033548;28;20283;-56
2023/07/10 09:38:30;;;;;;;0.10;0.10;;;15.40;60.30;;;;;;5034815;28;20204;-55
2023/07/10 09:41:00;;;;;;;0.00;0.00;;;15.40;60.50;;;;;;5034672;28;20222;-55
2023/07/10 09:43:33;;;;;;;0.10;0.10;;;15.30;60.60;;;;;;5057053;28;20218;-57
2023/07/10 09:46:04;;;;;;;0.10;0.10;;;15.30;60.80;;;;;;5074657;28;20567;-55
2023/07/10 09:48:38;;;;;;;0.10;0.10;;;15.30;60.90;;;;;;5074034;28;20190;-57
2023/07/10 09:51:12;;;;;;;0.10;0.10;;;15.30;61.00;;;;;;5074258;28;20570;-57
2023/07/10 09:53:46;;;;;;;0.10;0.10;;;15.30;61.10;;;;;;5074335;28;20210;-59
2023/07/10 09:56:25;;;;;;;0.10;0.10;;;15.30;61.20;;;;;;5072492;28;20304;-56
2023/07/10 09:58:58;;;;;;;0.10;0.10;;;15.30;62.00;;;;;;5047093;28;20201;-57
2023/07/10 10:01:31;;;;;;;0.10;0.10;;;15.30;62.00;;;;;;5053225;28;20196;-58
2023/07/10 10:04:05;;;;;;;0.10;0.10;;;15.30;62.00;;;;;;5040405;28;20578;-56
2023/07/10 10:06:36;;;;;;;0.10;0.10;;;15.30;61.90;;;;;;5057361;28;20240;-55
2023/07/10 10:09:17;;;;;;;0.10;0.10;;;15.30;61.80;;;;;;5053418;28;20198;-54
2023/07/10 10:11:52;;;;;;;0.10;0.10;;;15.30;62.50;;;;;;5053565;28;20207;-56
2023/07/10 10:14:32;;;;;;;0.10;0.10;;;15.30;61.90;;;;;;5070755;28;20214;-57
2023/07/10 10:17:09;;;;;;;0.10;0.10;;;15.30;61.80;;;;;;5038976;28;20227;-56
2023/07/10 10:19:43;;;;;;;0.10;0.10;;;15.40;61.80;;;;;;5053374;28;20674;-57
2023/07/10 10:22:15;;;;;;;0.10;0.10;;;15.30;61.80;;;;;;5053899;28;20191;-57
2023/07/10 10:24:47;;;;;;;0.10;0.10;;;15.30;61.80;;;;;;5052827;28;20695;-55
2023/07/10 10:27:30;;;;;;;0.10;0.10;;;15.30;61.80;;;;;;5053733;28;20198;-57
2023/07/10 10:30:19;;;;;;;0.10;0.10;;;15.30;61.80;;;;;;5052773;28;20290;-56
2023/07/10 10:32:57;;;;;;;0.20;0.20;;;15.30;61.80;;;;;;5048356;28;20210;-56
2023/07/10 10:35:33;;;;;;;0.10;0.10;;;15.40;61.80;;;;;;5052827;28;20207;-57
2023/07/10 10:38:30;;;;;;;0.10;0.10;;;15.30;61.80;;;;;;5053167;28;20482;-57
2023/07/10 10:41:10;;;;;;;0.00;0.00;;;15.30;62.60;;;;;;5052264;28;20238;-57
2023/07/10 10:43:52;;;;;;;0.10;0.10;;;15.40;61.90;;;;;;5052126;28;20215;-56
2023/07/10 10:46:48;;;;;;;0.10;0.10;;;15.40;61.90;;;;;;5051903;28;20508;-57
2023/07/10 10:49:39;;;;;;;0.05;0.05;;;15.40;61.90;;;;;;5032336;28;20203;-54
2023/07/10 10:52:19;;;;;;;0.10;0.10;;;15.40;62.00;;;;;;5036410;28;20202;-55
2023/07/10 10:55:02;;;;;;;0.10;0.10;;;15.30;61.90;;;;;;5053140;28;20710;-57
2023/07/10 10:57:43;;;;;;;0.10;0.10;;;15.30;61.90;;;;;;5052449;28;21031;-58
2023/07/10 11:00:30;;;;;;;0.15;0.15;;;15.30;61.90;;;;;;5052558;28;20566;-57
2023/07/10 11:03:15;;;;;;;0.10;0.10;;;15.30;61.90;;;;;;5041277;28;20266;-57
2023/07/10 11:05:49;;;;;;;0.10;0.10;;;15.30;61.90;;;;;;5050816;28;20561;-58
2023/07/10 11:08:23;;;;;;;0.10;0.10;;;15.30;61.90;;;;;;5052433;28;20651;-58
2023/07/10 11:10:55;;;;;;;0.10;0.10;;;15.30;61.90;;;;;;5051767;28;20214;-59
2023/07/10 11:13:34;;;;;;;0.10;0.10;;;15.30;62.00;;;;;;5061876;28;20721;-55
2023/07/10 11:16:06;;;;;;;0.10;0.10;;;15.30;61.90;;;;;;5071707;28;20191;-55
2023/07/10 11:18:39;;;;;;;0.10;0.10;;;15.40;62.00;;;;;;5057005;28;20226;-56
2023/07/10 11:21:10;;;;;;;0.05;0.05;;;15.30;62.00;;;;;;5051926;28;20202;-53
2023/07/10 11:23:49;;;;;;;0.10;0.10;;;15.40;62.00;;;;;;5052097;28;20218;-55
2023/07/10 11:26:22;;;;;;;0.10;0.10;;;15.40;62.00;;;;;;5052205;28;20337;-52
2023/07/10 11:28:54;;;;;;;0.10;0.10;;;15.40;62.10;;;;;;5051443;28;20223;-56
2023/07/10 11:31:38;;;;;;;0.10;0.10;;;15.40;62.00;;;;;;5051952;28;20195;-58
2023/07/10 11:34:43;;;;;;;0.03;0.03;;;15.30;62.00;;;;;;5051941;28;20212;-58
2023/07/10 11:37:42;;;;;;;0.10;0.10;;;15.30;62.00;;;;;;5020936;28;20234;-56
2023/07/10 11:40:46;;;;;;;0.10;0.10;;;15.30;61.90;;;;;;5045967;28;20282;-58
2023/07/10 11:43:57;;;;;;;0.10;0.10;;;15.30;61.90;;;;;;4999289;28;20225;-55
2023/07/10 11:46:36;;;;;;;0.10;0.10;;;15.30;61.90;;;;;;5071776;28;20229;-57
2023/07/10 11:49:20;;;;;;;0.10;0.10;;;15.30;61.90;;;;;;5072417;28;20198;-56
2023/07/10 11:52:32;;;;;;;0.10;0.10;;;15.30;62.00;;;;;;5072308;28;20198;-57
2023/07/10 11:55:12;;;;;;;0.10;0.10;;;15.30;62.00;;;;;;5026940;28;20215;-53
2023/07/10 11:57:43;;;;;;;0.10;0.10;;;15.30;61.90;;;;;;5040585;28;20220;-55
2023/07/10 12:00:28;;;;;;;0.10;0.10;;;15.30;62.00;;;;;;5040864;28;20183;-57
2023/07/10 12:03:04;;;;;;;0.10;0.10;;;15.30;62.00;;;;;;5042429;28;20215;-52
2023/07/10 12:05:40;;;;;;;0.05;0.05;;;15.30;62.00;;;;;;5041996;28;20191;-55
2023/07/10 12:08:15;;;;;;;0.10;0.10;;;15.30;61.90;;;;;;5031090;28;20192;-58
2023/07/10 12:10:50;;;;;;;0.10;0.10;;;15.20;61.90;;;;;;5031336;28;20211;-55
2023/07/10 12:13:23;;;;;;;0.10;0.10;;;15.20;61.90;;;;;;5039007;28;20583;-57
2023/07/10 12:15:55;;;;;;;0.13;0.13;;;15.20;61.90;;;;;;5041630;28;20211;-57
2023/07/10 12:18:33;;;;;;;0.10;0.10;;;15.20;61.80;;;;;;5040066;28;20231;-56
2023/07/10 12:21:06;;;;;;;0.10;0.10;;;15.20;61.80;;;;;;5039960;28;20195;-53
2023/07/10 12:23:37;;;;;;;0.10;0.10;;;15.20;61.80;;;;;;5040035;28;20211;-58
2023/07/10 12:26:21;;;;;;;0.10;0.10;;;15.20;61.80;;;;;;5041961;28;20585;-55
2023/07/10 12:28:57;;;;;;;0.03;0.03;;;15.20;61.80;;;;;;5041097;28;20198;-57
2023/07/10 12:31:28;;;;;;;0.05;0.05;;;15.10;61.70;;;;;;5040876;28;20655;-55
2023/07/10 12:34:02;;;;;;;0.20;0.20;;;15.10;61.70;;;;;;5040124;28;20223;-59
2023/07/10 12:36:36;;;;;;;0.10;0.10;;;15.10;61.70;;;;;;5041118;28;20191;-58
2023/07/10 12:39:09;;;;;;;0.10;0.10;;;15.10;61.70;;;;;;5040302;28;20226;-54
2023/07/10 12:41:46;;;;;;;0.10;0.10;;;15.10;61.70;;;;;;5039861;28;20204;-55
2023/07/10 12:44:23;;;;;;;0.10;0.10;;;15.10;61.70;;;;;;5042375;28;20245;-55
2023/07/10 12:46:57;;;;;;;0.10;0.10;;;15.10;61.60;;;;;;5041038;28;20558;-56
2023/07/10 12:49:30;;;;;;;0.10;0.10;;;15.10;61.60;;;;;;5040696;28;20488;-57
2023/07/10 12:52:02;;;;;;;0.05;0.05;;;15.10;61.60;;;;;;5039903;28;20184;-54
2023/07/10 12:54:40;;;;;;;0.10;0.10;;;15.10;61.60;;;;;;5041008;28;20215;-57
2023/07/10 12:57:18;;;;;;;0.10;0.10;;;15.10;61.60;;;;;;5040287;28;20714;-59
2023/07/10 12:59:50;;;;;;;0.10;0.10;;;15.00;61.60;;;;;;5041537;28;20199;-56
2023/07/10 13:02:24;;;;;;;0.10;0.10;;;15.00;61.50;;;;;;5044031;28;20191;-56
2023/07/10 13:04:58;;;;;;;0.10;0.10;;;15.00;61.60;;;;;;5050971;28;20418;-56
2023/07/10 13:07:36;;;;;;;0.10;0.10;;;15.00;61.60;;;;;;5052248;28;20222;-54
2023/07/10 13:10:22;;;;;;;0.10;0.10;;;15.00;61.60;;;;;;5055223;28;20195;-55
2023/07/10 13:12:57;;;;;;;0.10;0.10;;;14.90;61.50;;;;;;5060913;28;20198;-57
2023/07/10 13:15:36;;;;;;;0.17;0.17;;;14.90;61.50;;;;;;5075429;28;20194;-57
2023/07/10 13:18:08;;;;;;;0.10;0.10;;;14.90;61.50;;;;;;5075217;28;20229;-58
2023/07/10 13:20:39;;;;;;;0.10;0.10;;;14.90;61.50;;;;;;5074992;28;20198;-57